Time;durP1;ratioP1;P1;durP2;ratioP2;P2;SDS_P1;SDS_P2;PMS_P1;PMS_P2;Temp;Humidity;BMP_temperature;BMP_pressure;BME280_temperature;BME280_humidity;BME280_pressure;Samples;Min_cycle;Max_cycle;Signal;HPM_P1;HPM_P2
2022/07/03 00:02:00;;;;;;;5.07;4.57;;;;;;;16.93;100.00;96609.84;5031990;28;102408;-64
2022/07/03 00:04:28;;;;;;;5.57;4.90;;;;;;;17.01;100.00;96613.78;5031572;28;102555;-64
2022/07/03 00:06:57;;;;;;;5.73;5.23;;;;;;;16.92;100.00;96610.94;5035355;28;103227;-64
2022/07/03 00:09:24;;;;;;;6.13;5.20;;;;;;;16.98;100.00;96606.28;5031217;28;102726;-64
2022/07/03 00:11:51;;;;;;;5.23;4.70;;;;;;;16.93;100.00;96614.41;5032090;27;101778;-64
2022/07/03 00:14:19;;;;;;;4.80;4.00;;;;;;;16.85;100.00;96606.97;5031428;28;102613;-64
2022/07/03 00:16:46;;;;;;;4.53;4.13;;;;;;;16.82;100.00;96616.41;5031099;28;104196;-64
2022/07/03 00:19:13;;;;;;;4.57;3.67;;;;;;;16.86;100.00;96617.44;5030610;28;102249;-64
2022/07/03 00:21:46;;;;;;;4.50;3.70;;;;;;;16.70;100.00;96609.81;5030194;28;105671;-64
2022/07/03 00:24:26;;;;;;;3.73;3.43;;;;;;;16.55;100.00;96621.47;5031470;28;102890;-64
2022/07/03 00:26:54;;;;;;;4.80;4.00;;;;;;;16.52;100.00;96615.88;5033954;28;101838;-64
2022/07/03 00:29:23;;;;;;;5.07;3.90;;;;;;;16.37;100.00;96618.66;5029650;28;105951;-64
2022/07/03 00:31:51;;;;;;;3.67;3.37;;;;;;;16.22;100.00;96616.91;5030136;28;102041;-64
2022/07/03 00:34:20;;;;;;;5.63;3.67;;;;;;;16.27;100.00;96616.03;5031887;28;102284;-64
2022/07/03 00:36:49;;;;;;;4.37;3.90;;;;;;;16.27;100.00;96608.00;5029452;28;105568;-64
2022/07/03 00:39:18;;;;;;;3.83;3.40;;;;;;;16.16;100.00;96609.16;5031290;27;101970;-64
2022/07/03 00:41:47;;;;;;;4.10;3.80;;;;;;;16.12;100.00;96610.78;5030091;28;104813;-64
2022/07/03 00:44:14;;;;;;;3.97;3.63;;;;;;;16.12;100.00;96611.59;5030909;28;102518;-64
2022/07/03 00:46:43;;;;;;;5.57;3.83;;;;;;;16.04;100.00;96603.34;5031470;27;102120;-64
2022/07/03 00:49:12;;;;;;;4.17;3.73;;;;;;;16.05;100.00;96610.31;5034446;28;102407;-64
2022/07/03 00:51:42;;;;;;;6.63;3.90;;;;;;;16.06;100.00;96612.72;5031264;28;101716;-64
2022/07/03 00:54:10;;;;;;;4.40;3.57;;;;;;;15.95;100.00;96607.69;5030067;28;105553;-64
2022/07/03 00:56:42;;;;;;;4.43;3.80;;;;;;;15.92;100.00;96608.25;5030674;27;102517;-64
2022/07/03 00:59:09;;;;;;;8.47;3.90;;;;;;;15.81;100.00;96604.03;5030924;27;101864;-64
2022/07/03 01:01:39;;;;;;;5.60;3.43;;;;;;;15.75;100.00;96603.25;5030748;28;102914;-64
2022/07/03 01:04:19;;;;;;;4.67;4.13;;;;;;;15.78;100.00;96612.63;5029008;28;105481;-64
2022/07/03 01:06:54;;;;;;;4.93;3.87;;;;;;;15.94;100.00;96609.59;5031290;28;101844;-64
2022/07/03 01:09:35;;;;;;;3.60;3.40;;;;;;;15.87;100.00;96609.06;5029850;28;105620;-64
2022/07/03 01:12:11;;;;;;;4.70;4.30;;;;;;;15.94;100.00;96606.91;5034016;27;102549;-64
2022/07/03 01:14:50;;;;;;;4.33;3.93;;;;;;;15.84;100.00;96615.00;5031259;28;102331;-64
2022/07/03 01:17:26;;;;;;;4.63;4.23;;;;;;;15.96;100.00;96612.78;5030519;28;102784;-64
2022/07/03 01:20:02;;;;;;;5.47;4.50;;;;;;;16.00;100.00;96608.47;5031106;28;101835;-64
2022/07/03 01:22:35;;;;;;;5.97;4.30;;;;;;;15.98;100.00;96605.25;5030771;27;102780;-64
2022/07/03 01:25:17;;;;;;;4.10;3.70;;;;;;;16.04;100.00;96603.34;5028291;28;103729;-64
2022/07/03 01:28:12;;;;;;;4.20;3.80;;;;;;;16.06;100.00;96601.16;5030384;28;101775;-64
2022/07/03 01:30:42;;;;;;;5.20;4.40;;;;;;;16.03;100.00;96599.84;5029358;28;103510;-64
2022/07/03 01:33:11;;;;;;;4.27;3.97;;;;;;;15.96;100.00;96601.28;5029772;28;102694;-64
2022/07/03 01:35:40;;;;;;;3.90;3.60;;;;;;;15.90;100.00;96594.31;5032838;28;101877;-64
2022/07/03 01:38:11;;;;;;;4.30;3.87;;;;;;;15.84;100.00;96598.91;5030297;28;102587;-64
2022/07/03 01:40:42;;;;;;;5.13;4.10;;;;;;;15.69;100.00;96604.38;5030583;28;101693;-64
2022/07/03 01:43:13;;;;;;;3.90;3.60;;;;;;;15.72;100.00;96594.97;5029221;28;105360;-64
2022/07/03 01:45:43;;;;;;;4.03;3.73;;;;;;;15.70;100.00;96602.50;5030302;27;103191;-64
2022/07/03 01:48:11;;;;;;;4.40;3.60;;;;;;;15.66;100.00;96594.22;5030595;27;102097;-64
2022/07/03 01:50:40;;;;;;;4.47;3.70;;;;;;;15.69;100.00;96595.53;5030348;28;102369;-64
2022/07/03 01:53:09;;;;;;;3.87;3.33;;;;;;;15.54;100.00;96600.97;5029723;27;103135;-64
2022/07/03 01:55:40;;;;;;;4.23;3.80;;;;;;;15.56;100.00;96596.13;5030415;28;101841;-64
2022/07/03 01:58:07;;;;;;;6.17;3.60;;;;;;;15.54;100.00;96599.06;5032888;28;102383;-64
2022/07/03 02:00:42;;;;;;;4.43;3.43;;;;;;;15.58;100.00;96599.34;5030422;28;102122;-64
2022/07/03 02:03:10;;;;;;;5.27;3.33;;;;;;;15.52;100.00;96608.47;5030389;28;102428;-64
2022/07/03 02:05:42;;;;;;;3.70;3.40;;;;;;;15.51;100.00;96599.66;5029521;28;103254;-64
2022/07/03 02:08:29;;;;;;;3.53;3.23;;;;;;;15.54;100.00;96607.13;5030226;27;101799;-64
2022/07/03 02:11:10;;;;;;;3.40;3.20;;;;;;;15.57;100.00;96603.09;5028919;28;103628;-64
2022/07/03 02:13:41;;;;;;;5.07;3.40;;;;;;;15.54;100.00;96603.66;5029563;28;102652;-64
2022/07/03 02:16:13;;;;;;;4.53;3.50;;;;;;;15.38;100.00;96597.53;5030286;28;101700;-64
2022/07/03 02:18:41;;;;;;;4.43;3.50;;;;;;;15.43;100.00;96602.09;5029967;28;102393;-64
2022/07/03 02:21:19;;;;;;;3.83;3.53;;;;;;;15.28;100.00;96597.59;5031356;28;103856;-64
2022/07/03 02:23:56;;;;;;;4.73;3.90;;;;;;;15.38;100.00;96610.94;5030159;28;102372;-64
2022/07/03 02:26:31;;;;;;;4.90;3.87;;;;;;;15.39;100.00;96617.13;5029684;28;102857;-64
2022/07/03 02:29:03;;;;;;;3.87;3.50;;;;;;;15.43;100.00;96607.47;5029719;28;101701;-64
2022/07/03 02:31:39;;;;;;;4.30;4.00;;;;;;;15.50;100.00;96608.78;5028607;28;105627;-64
2022/07/03 02:34:08;;;;;;;3.87;3.57;;;;;;;15.52;100.00;96621.88;5029434;28;102528;-64
2022/07/03 02:36:37;;;;;;;3.93;3.40;;;;;;;15.53;100.00;96624.28;5028234;27;102090;-64
2022/07/03 02:39:09;;;;;;;4.50;3.43;;;;;;;15.53;100.00;96618.16;5033699;27;102278;-64
2022/07/03 02:41:46;;;;;;;4.80;3.60;;;;;;;15.37;100.00;96613.94;5034870;28;103966;-64
2022/07/03 02:44:24;;;;;;;3.40;3.10;;;;;;;15.17;100.00;96620.13;5033237;28;102839;-64
2022/07/03 02:47:03;;;;;;;3.43;3.13;;;;;;;15.21;100.00;96621.16;5032200;28;102557;-64
2022/07/03 02:49:48;;;;;;;4.13;3.10;;;;;;;15.30;100.00;96619.53;5033599;27;102113;-64
2022/07/03 02:52:29;;;;;;;3.10;2.90;;;;;;;15.36;100.00;96623.03;5033386;28;102623;-64
2022/07/03 02:54:59;;;;;;;4.97;3.67;;;;;;;15.29;100.00;96628.66;5031314;28;103916;-64
2022/07/03 02:57:36;;;;;;;4.00;3.50;;;;;;;15.35;100.00;96621.41;5033288;27;101940;-64
2022/07/03 03:00:07;;;;;;;4.27;3.87;;;;;;;15.25;100.00;96632.13;5032643;27;103729;-64
2022/07/03 03:02:54;;;;;;;4.73;4.23;;;;;;;15.37;100.00;96624.66;5032338;28;102593;-64
2022/07/03 03:05:30;;;;;;;5.73;4.43;;;;;;;15.32;100.00;96636.13;5036791;27;101936;-64
2022/07/03 03:08:12;;;;;;;4.50;4.10;;;;;;;15.32;100.00;96641.50;5031004;28;105293;-64
2022/07/03 03:10:41;;;;;;;5.30;3.97;;;;;;;15.40;100.00;96640.97;5033214;27;102125;-64
2022/07/03 03:13:12;;;;;;;4.97;4.30;;;;;;;15.37;100.00;96636.16;5031562;28;105707;-64
2022/07/03 03:15:40;;;;;;;4.40;4.00;;;;;;;15.41;100.00;96634.53;5032002;28;104942;-64
2022/07/03 03:18:13;;;;;;;4.43;4.07;;;;;;;15.47;100.00;96629.97;5032962;28;101709;-64
2022/07/03 03:20:45;;;;;;;4.80;4.40;;;;;;;15.49;100.00;96638.53;5031411;28;105238;-64
2022/07/03 03:23:22;;;;;;;4.63;4.23;;;;;;;15.54;100.00;96638.50;5032491;28;102835;-64
2022/07/03 03:25:52;;;;;;;4.80;4.40;;;;;;;15.53;100.00;96645.72;5032661;27;101758;-64
2022/07/03 03:28:19;;;;;;;5.07;4.67;;;;;;;15.59;100.00;96638.47;5035163;28;102344;-64
2022/07/03 03:30:47;;;;;;;4.33;4.03;;;;;;;15.63;100.00;96648.38;5032494;28;102173;-64
2022/07/03 03:33:15;;;;;;;6.60;5.20;;;;;;;15.57;100.00;96656.69;5032790;28;102419;-64
2022/07/03 03:35:43;;;;;;;4.93;4.53;;;;;;;15.65;100.00;96646.19;5031887;27;101920;-64
2022/07/03 03:38:10;;;;;;;6.10;4.70;;;;;;;15.75;100.00;96650.75;5031170;28;101796;-64
2022/07/03 03:40:37;;;;;;;4.73;4.33;;;;;;;15.77;100.00;96653.94;5031228;28;105658;-63
2022/07/03 03:43:05;;;;;;;4.73;4.20;;;;;;;15.84;100.00;96651.75;5031819;27;104929;-64
2022/07/03 03:45:32;;;;;;;4.37;3.97;;;;;;;15.85;100.00;96653.34;5030887;28;101977;-63
2022/07/03 03:47:59;;;;;;;3.90;3.60;;;;;;;15.92;100.00;96648.50;5031721;27;103876;-64
2022/07/03 03:50:28;;;;;;;4.83;4.27;;;;;;;15.91;100.00;96657.63;5034329;28;102926;-64
2022/07/03 03:52:55;;;;;;;7.43;4.47;;;;;;;15.93;100.00;96660.81;5032654;27;102263;-64
2022/07/03 03:55:22;;;;;;;5.10;4.23;;;;;;;15.97;100.00;96656.50;5030276;28;106291;-64
2022/07/03 03:57:50;;;;;;;5.10;4.00;;;;;;;15.92;100.00;96656.53;5032081;28;101844;-63
2022/07/03 04:00:17;;;;;;;5.17;4.17;;;;;;;15.85;100.00;96662.19;5032000;28;102584;-63
2022/07/03 04:02:44;;;;;;;6.33;4.10;;;;;;;15.86;100.00;96663.00;5031593;28;102641;-64
2022/07/03 04:05:11;;;;;;;5.30;4.20;;;;;;;15.88;100.00;96666.22;5032160;28;101778;-63
2022/07/03 04:07:40;;;;;;;4.07;3.43;;;;;;;15.93;100.00;96674.22;5031740;28;102519;-64
2022/07/03 04:10:08;;;;;;;4.23;3.93;;;;;;;16.01;100.00;96684.38;5030105;28;105358;-64
2022/07/03 04:12:35;;;;;;;6.13;4.47;;;;;;;16.03;100.00;96684.91;5034109;28;101985;-63
2022/07/03 04:15:02;;;;;;;4.13;3.77;;;;;;;16.04;100.00;96689.19;5031421;28;102657;-64
2022/07/03 04:17:30;;;;;;;4.23;3.83;;;;;;;16.09;100.00;96686.47;5031998;28;101736;-63
2022/07/03 04:19:57;;;;;;;4.40;4.00;;;;;;;16.14;100.00;96678.41;5031732;28;102404;-63
2022/07/03 04:22:25;;;;;;;3.83;3.40;;;;;;;16.21;100.00;96684.25;5031304;28;103150;-64
2022/07/03 04:24:53;;;;;;;4.47;3.83;;;;;;;16.19;100.00;96699.84;5030473;28;102035;-63
2022/07/03 04:27:20;;;;;;;3.70;3.40;;;;;;;16.27;100.00;96688.50;5031920;28;102887;-63
2022/07/03 04:29:47;;;;;;;3.63;3.33;;;;;;;16.41;100.00;96684.16;5030992;28;102671;-64
2022/07/03 04:32:14;;;;;;;3.97;3.37;;;;;;;16.55;100.00;96685.94;5031970;28;101901;-64
2022/07/03 04:34:41;;;;;;;3.70;3.40;;;;;;;16.63;100.00;96685.31;5034386;28;102875;-63
2022/07/03 04:37:08;;;;;;;4.50;4.13;;;;;;;16.60;100.00;96685.06;5031939;28;101750;-64
2022/07/03 04:39:35;;;;;;;4.23;3.87;;;;;;;16.67;100.00;96689.03;5031640;28;102850;-63
2022/07/03 04:42:05;;;;;;;4.53;3.60;;;;;;;16.77;100.00;96688.16;5031007;28;102673;-64
2022/07/03 04:44:32;;;;;;;5.10;3.87;;;;;;;16.87;100.00;96685.38;5031291;28;102705;-64
2022/07/03 04:46:59;;;;;;;4.63;3.70;;;;;;;16.91;100.00;96689.91;5031850;27;102867;-63
2022/07/03 04:49:26;;;;;;;4.20;3.87;;;;;;;16.96;100.00;96697.13;5030698;27;104732;-64
2022/07/03 04:51:53;;;;;;;3.37;3.10;;;;;;;17.02;100.00;96693.31;5031717;27;101990;-63
2022/07/03 04:54:20;;;;;;;4.17;3.77;;;;;;;17.11;100.00;96695.09;5034300;28;102523;-64
2022/07/03 04:56:48;;;;;;;4.37;3.97;;;;;;;17.27;100.00;96693.06;5030778;28;101839;-64
2022/07/03 04:59:16;;;;;;;3.70;3.37;;;;;;;17.49;100.00;96693.41;5029352;28;103610;-64
2022/07/03 05:01:44;;;;;;;4.23;3.83;;;;;;;17.57;100.00;96695.44;5030210;28;102879;-64
2022/07/03 05:04:11;;;;;;;3.70;3.40;;;;;;;17.72;100.00;96689.88;5031293;27;101808;-63
2022/07/03 05:06:39;;;;;;;3.70;3.40;;;;;;;17.75;100.00;96689.28;5031826;28;101674;-64
2022/07/03 05:09:06;;;;;;;4.17;3.77;;;;;;;17.76;100.00;96691.69;5029049;28;103890;-64
2022/07/03 05:11:34;;;;;;;3.40;3.10;;;;;;;17.88;100.00;96692.09;5031102;28;101860;-64
2022/07/03 05:14:01;;;;;;;4.03;3.03;;;;;;;18.08;100.00;96688.31;5029718;28;103591;-64
2022/07/03 05:16:30;;;;;;;3.30;3.10;;;;;;;18.21;100.00;96691.09;5033873;28;102730;-64
2022/07/03 05:18:57;;;;;;;3.30;3.07;;;;;;;18.23;100.00;96693.50;5029951;28;105573;-64
2022/07/03 05:21:25;;;;;;;3.30;3.00;;;;;;;18.18;100.00;96689.00;5030897;27;102633;-63
2022/07/03 05:23:52;;;;;;;3.00;2.80;;;;;;;18.36;100.00;96690.91;5029874;28;101958;-63
2022/07/03 05:26:44;;;;;;;3.40;2.97;;;;;;;18.43;100.00;96691.34;5029766;28;103615;-64
2022/07/03 05:29:11;;;;;;;3.67;2.90;;;;;;;18.57;100.00;96686.81;5030493;28;102791;-64
2022/07/03 05:31:39;;;;;;;3.27;3.00;;;;;;;18.76;100.00;96690.31;5031077;28;101833;-64
2022/07/03 05:34:08;;;;;;;2.80;2.60;;;;;;;19.02;100.00;96693.38;5031100;28;102376;-64
2022/07/03 05:36:35;;;;;;;2.80;2.57;;;;;;;19.03;100.00;96690.34;5030254;27;103090;-63
2022/07/03 05:41:47;;;;;;;2.83;2.63;;;;;;;19.22;100.00;96690.31;5028745;28;105335;-64
2022/07/03 05:44:14;;;;;;;3.07;2.47;;;;;;;19.12;100.00;96682.41;5030820;28;101825;-64
2022/07/03 05:46:43;;;;;;;2.50;2.30;;;;;;;19.12;100.00;96690.50;5029524;28;105944;-64
2022/07/03 05:49:39;;;;;;;2.37;2.20;;;;;;;19.41;100.00;96691.06;5030039;27;102891;-64
2022/07/03 05:52:07;;;;;;;2.90;2.40;;;;;;;19.45;100.00;96684.75;5030921;28;101873;-63
2022/07/03 05:54:34;;;;;;;5.43;2.43;;;;;;;19.51;100.00;96688.19;5030471;27;105459;-64
2022/07/03 05:57:01;;;;;;;2.63;1.90;;;;;;;19.69;100.00;96692.66;5029836;27;104349;-63
2022/07/03 05:59:28;;;;;;;3.30;2.10;;;;;;;19.94;100.00;96697.56;5028741;28;101993;-64
2022/07/03 06:01:57;;;;;;;2.27;2.00;;;;;;;20.08;100.00;96695.66;5033262;28;102376;-64
2022/07/03 06:04:23;;;;;;;3.03;2.10;;;;;;;20.13;100.00;96687.44;5030578;28;101818;-63
2022/07/03 06:07:09;;;;;;;2.00;1.90;;;;;;;20.33;100.00;96693.19;5030677;28;102348;-63
2022/07/03 06:09:36;;;;;;;2.00;1.90;;;;;;;20.60;100.00;96695.81;5029932;28;102574;-63
2022/07/03 06:12:03;;;;;;;3.20;2.00;;;;;;;20.85;100.00;96694.41;5029785;27;101846;-63
2022/07/03 06:14:30;;;;;;;2.07;1.93;;;;;;;21.09;100.00;96692.22;5030427;28;102338;-63
2022/07/03 06:16:59;;;;;;;2.10;1.90;;;;;;;21.24;100.00;96692.63;5029989;28;102644;-63
2022/07/03 06:19:55;;;;;;;2.40;1.87;;;;;;;21.42;100.00;96693.50;5030327;28;101858;-64
2022/07/03 06:22:22;;;;;;;2.00;1.77;;;;;;;21.47;100.00;96690.69;5028704;28;105643;-63
2022/07/03 06:24:51;;;;;;;2.07;1.70;;;;;;;21.76;100.00;96693.69;5032915;28;102675;-63
2022/07/03 06:27:18;;;;;;;2.63;2.00;;;;;;;21.77;100.00;96690.66;5030416;28;102915;-64
2022/07/03 06:29:45;;;;;;;2.20;2.00;;;;;;;21.90;100.00;96694.38;5027953;28;105469;-64
2022/07/03 06:32:14;;;;;;;1.83;1.70;;;;;;;21.93;100.00;96685.59;5030125;28;101878;-64
2022/07/03 06:34:51;;;;;;;2.40;1.77;;;;;;;22.02;100.00;96686.44;5029961;28;102319;-64
2022/07/03 06:37:17;;;;;;;1.70;1.60;;;;;;;22.17;100.00;96683.28;5027996;28;105339;-63
2022/07/03 06:39:44;;;;;;;1.80;1.70;;;;;;;22.31;100.00;96683.91;5028570;28;102067;-64
2022/07/03 06:42:11;;;;;;;3.87;1.70;;;;;;;22.38;100.00;96676.09;5028305;28;103782;-64
2022/07/03 06:44:48;;;;;;;1.50;1.43;;;;;;;22.35;100.00;96679.47;5027572;28;105465;-63
2022/07/03 06:47:17;;;;;;;1.37;1.20;;;;;;;22.48;100.00;96675.81;5030468;28;102386;-64
2022/07/03 06:49:44;;;;;;;2.00;1.70;;;;;;;22.64;100.00;96685.09;5022739;28;105319;-64
2022/07/03 06:52:11;;;;;;;2.53;1.70;;;;;;;22.70;100.00;96684.59;5027219;28;102072;-63
2022/07/03 06:54:41;;;;;;;1.67;1.33;;;;;;;22.61;100.00;96683.03;5021396;28;105171;-64
2022/07/03 06:57:08;;;;;;;2.07;1.40;;;;;;;22.79;100.00;96685.41;5027327;28;105656;-64
2022/07/03 06:59:35;;;;;;;1.53;1.43;;;;;;;22.82;100.00;96673.91;5027036;28;101994;-63
2022/07/03 07:02:02;;;;;;;1.60;1.50;;;;;;;22.97;100.00;96676.13;5027643;28;105443;-64
2022/07/03 07:04:32;;;;;;;3.03;1.70;;;;;;;23.16;100.00;96678.47;5027006;28;103784;-63
2022/07/03 07:06:59;;;;;;;1.80;1.10;;;;;;;23.43;100.00;96680.84;5031315;28;101935;-64
2022/07/03 07:09:26;;;;;;;1.50;1.33;;;;;;;23.54;100.00;96679.34;5028926;28;102545;-63
2022/07/03 07:11:53;;;;;;;2.37;1.30;;;;;;;23.44;100.00;96677.78;5028146;28;101993;-64
2022/07/03 07:14:20;;;;;;;1.23;1.20;;;;;;;23.60;100.00;96680.75;5027792;28;105432;-63
2022/07/03 07:16:48;;;;;;;1.40;1.30;;;;;;;23.76;100.00;96684.53;5027446;28;105999;-63
2022/07/03 07:19:15;;;;;;;1.23;1.23;;;;;;;23.94;100.00;96684.16;5028061;28;101876;-64
2022/07/03 07:21:45;;;;;;;1.43;1.33;;;;;;;24.10;100.00;96678.94;5027758;28;104884;-64
2022/07/03 07:24:12;;;;;;;1.40;1.30;;;;;;;24.09;100.00;96675.41;5029447;27;105322;-63
2022/07/03 07:26:39;;;;;;;1.47;1.37;;;;;;;24.12;100.00;96673.97;5031362;28;102012;-64
2022/07/03 07:29:06;;;;;;;1.63;1.30;;;;;;;24.27;100.00;96682.34;5033311;28;105213;-64
2022/07/03 07:31:33;;;;;;;5.20;1.50;;;;;;;23.96;100.00;96676.47;5032394;28;102081;-64
2022/07/03 07:34:04;;;;;;;1.50;1.20;;;;;;;24.47;100.00;96680.78;5031238;28;105688;-64
2022/07/03 07:36:31;;;;;;;1.40;1.30;;;;;;;24.59;100.00;96680.84;5030606;28;105507;-64
2022/07/03 07:39:00;;;;;;;1.57;1.40;;;;;;;24.68;100.00;96682.38;5031043;28;101927;-64
2022/07/03 07:41:27;;;;;;;1.43;1.20;;;;;;;24.91;100.00;96675.44;5032502;28;102881;-64
2022/07/03 07:43:54;;;;;;;1.67;1.27;;;;;;;25.27;100.00;96681.03;5030476;28;105392;-63
2022/07/03 07:46:21;;;;;;;1.20;1.10;;;;;;;25.54;100.00;96682.34;5030901;28;102026;-63
2022/07/03 07:48:49;;;;;;;1.00;1.00;;;;;;;25.60;100.00;96673.63;5030864;28;107139;-63
2022/07/03 07:51:16;;;;;;;1.97;1.37;;;;;;;25.64;100.00;96684.63;5035135;28;102612;-63
2022/07/03 07:53:44;;;;;;;1.10;1.10;;;;;;;25.70;100.00;96675.91;5032569;28;102362;-64
2022/07/03 07:56:13;;;;;;;1.10;1.10;;;;;;;25.74;100.00;96676.00;5030355;28;105589;-63
2022/07/03 07:58:40;;;;;;;1.23;1.13;;;;;;;25.89;100.00;96680.78;5031670;28;101840;-64
2022/07/03 08:06:36;;;;;;;1.70;1.20;;;;;;;26.08;100.00;96686.47;5030868;28;101771;-63
2022/07/03 08:09:03;;;;;;;1.67;1.13;;;;;;;26.42;100.00;96683.28;5031892;28;102374;-63
2022/07/03 08:11:31;;;;;;;1.00;1.00;;;;;;;26.48;100.00;96674.50;5030940;28;102701;-63
2022/07/03 08:13:59;;;;;;;0.80;0.80;;;;;;;26.59;100.00;96672.13;5035587;28;102065;-63
2022/07/03 08:16:26;;;;;;;1.17;1.17;;;;;;;26.69;100.00;96677.09;5029420;28;105978;-64
2022/07/03 08:18:53;;;;;;;1.13;1.03;;;;;;;26.78;100.00;96681.28;5031678;28;101971;-64
2022/07/03 08:21:20;;;;;;;1.13;1.13;;;;;;;27.03;100.00;96676.50;5030086;28;105189;-64
2022/07/03 08:23:48;;;;;;;1.10;1.10;;;;;;;27.01;100.00;96670.59;5031288;27;102568;-64
2022/07/03 08:26:15;;;;;;;3.97;1.40;;;;;;;27.01;100.00;96671.41;5031643;28;101832;-64
2022/07/03 08:28:43;;;;;;;1.03;1.03;;;;;;;27.11;100.00;96675.56;5030162;28;106574;-64
2022/07/03 08:31:10;;;;;;;1.17;1.07;;;;;;;27.05;100.00;96674.22;5029385;28;104041;-64
2022/07/03 08:33:38;;;;;;;1.43;1.07;;;;;;;26.71;100.00;96666.63;5030262;28;102026;-64
2022/07/03 08:36:05;;;;;;;2.27;1.10;;;;;;;27.09;100.00;96666.94;5032589;27;106388;-64
2022/07/03 08:38:35;;;;;;;1.60;1.10;;;;;;;27.54;100.00;96662.72;5030213;28;101949;-64
2022/07/03 08:41:04;;;;;;;1.20;1.20;;;;;;;27.40;98.56;96661.56;5030327;28;105050;-63
2022/07/03 08:43:32;;;;;;;1.10;1.07;;;;;;;27.31;96.67;96660.91;5029561;28;105752;-64
2022/07/03 08:46:02;;;;;;;1.17;1.07;;;;;;;27.13;96.56;96656.91;5031352;28;101813;-64
2022/07/03 08:48:32;;;;;;;1.33;1.23;;;;;;;27.63;95.99;96660.56;5031533;27;102660;-64
2022/07/03 08:51:01;;;;;;;1.20;1.10;;;;;;;27.90;96.28;96661.69;5029431;28;105559;-64
2022/07/03 08:53:29;;;;;;;1.40;1.30;;;;;;;27.83;98.93;96654.09;5029935;28;101935;-64
2022/07/03 08:55:57;;;;;;;1.10;1.00;;;;;;;28.15;99.67;96663.84;5031471;28;102844;-64
2022/07/03 08:58:24;;;;;;;3.07;1.00;;;;;;;28.01;83.11;96660.00;5031924;28;102214;-64
2022/07/03 09:00:52;;;;;;;1.13;1.03;;;;;;;27.98;78.36;96661.50;5031670;27;102422;-64
2022/07/03 09:03:25;;;;;;;0.93;0.93;;;;;;;28.47;78.73;96657.19;5029014;28;106054;-64
2022/07/03 09:05:52;;;;;;;1.00;1.00;;;;;;;28.36;74.97;96661.59;5031124;27;101654;-64
2022/07/03 09:08:20;;;;;;;1.30;1.10;;;;;;;28.42;79.41;96660.19;5031155;28;102287;-64
2022/07/03 09:10:47;;;;;;;0.97;0.90;;;;;;;28.60;76.69;96650.41;5029030;28;105097;-64
2022/07/03 09:13:14;;;;;;;0.90;0.90;;;;;;;28.24;88.43;96653.50;5029630;28;102054;-64
2022/07/03 09:15:41;;;;;;;0.87;0.87;;;;;;;28.29;78.31;96649.69;5031164;28;102309;-64
2022/07/03 09:18:09;;;;;;;1.00;1.00;;;;;;;28.59;79.92;96658.97;5033820;28;102870;-64
2022/07/03 09:20:40;;;;;;;0.90;0.90;;;;;;;28.72;76.87;96646.75;5029565;28;105204;-64
2022/07/03 09:23:13;;;;;;;1.00;1.00;;;;;;;29.02;69.79;96653.25;5030283;28;104465;-64
2022/07/03 09:25:54;;;;;;;1.37;0.80;;;;;;;28.59;58.53;96645.28;5029614;28;102285;-63
2022/07/03 09:28:23;;;;;;;1.70;0.83;;;;;;;28.09;66.52;96648.06;5030938;28;102539;-64
2022/07/03 09:31:01;;;;;;;1.00;0.90;;;;;;;28.85;59.45;96640.78;5028506;28;106066;-64
2022/07/03 09:33:29;;;;;;;0.60;0.60;;;;;;;28.87;50.69;96652.16;5030575;28;101852;-64
2022/07/03 09:35:57;;;;;;;1.20;0.80;;;;;;;29.08;57.57;96641.63;5029422;28;105628;-64
2022/07/03 09:38:25;;;;;;;0.80;0.80;;;;;;;28.64;52.96;96645.81;5028811;28;105939;-64
2022/07/03 09:40:54;;;;;;;0.70;0.70;;;;;;;28.87;55.02;96646.66;5034152;28;101899;-64
2022/07/03 09:43:26;;;;;;;0.90;0.90;;;;;;;29.16;54.86;96645.31;5028438;28;103985;-64
2022/07/03 09:45:55;;;;;;;0.88;0.85;;;;;;;28.86;57.97;96647.03;5030179;28;102396;-64
2022/07/03 09:48:27;;;;;;;1.60;0.70;;;;;;;28.85;52.59;96646.25;5029682;28;102370;-64
2022/07/03 09:51:27;;;;;;;0.80;0.80;;;;;;;28.99;50.22;96646.53;5028411;28;105543;-64
2022/07/03 09:53:56;;;;;;;0.90;0.80;;;;;;;29.27;48.56;96646.28;5029129;28;102126;-64
2022/07/03 09:56:24;;;;;;;1.07;0.73;;;;;;;28.73;51.87;96642.84;5028747;28;103670;-64
2022/07/03 09:59:09;;;;;;;0.70;0.70;;;;;;;29.74;51.66;96631.09;5029305;28;102602;-64
2022/07/03 10:01:38;;;;;;;1.10;0.60;;;;;;;30.18;45.92;96625.94;5029064;28;101834;-64
2022/07/03 10:04:13;;;;;;;2.40;0.70;;;;;;;29.09;43.92;96634.22;5033200;28;102912;-64
2022/07/03 10:06:49;;;;;;;0.85;0.70;;;;;;;29.55;42.45;96633.13;5030252;28;101802;-64
2022/07/03 10:09:18;;;;;;;1.67;0.70;;;;;;;29.37;43.40;96624.56;5028651;28;106853;-64
2022/07/03 10:11:45;;;;;;;0.53;0.53;;;;;;;30.17;43.52;96627.09;5028123;28;104165;-64
2022/07/03 10:14:15;;;;;;;1.83;0.67;;;;;;;29.93;42.95;96619.25;5030241;28;101847;-64
2022/07/03 10:16:43;;;;;;;1.65;0.65;;;;;;;29.38;42.65;96626.13;5029707;27;102782;-64
2022/07/03 10:19:15;;;;;;;0.75;0.65;;;;;;;29.37;41.31;96612.81;5029779;28;103265;-64
2022/07/03 10:21:50;;;;;;;0.95;0.60;;;;;;;29.86;40.69;96614.44;5030109;27;102278;-64
2022/07/03 10:24:18;;;;;;;1.90;0.60;;;;;;;29.47;38.47;96623.94;5028706;28;104051;-64
2022/07/03 10:26:45;;;;;;;0.70;0.70;;;;;;;29.63;42.92;96621.09;5032972;28;102724;-64
2022/07/03 10:29:15;;;;;;;0.63;0.63;;;;;;;29.96;38.90;96619.31;5030134;28;102396;-64
2022/07/03 10:31:46;;;;;;;0.90;0.70;;;;;;;29.79;38.42;96621.75;5028835;28;102570;-63
2022/07/03 10:34:18;;;;;;;1.05;0.65;;;;;;;29.73;39.35;96621.28;5030349;28;101829;-64
2022/07/03 10:36:47;;;;;;;0.70;0.70;;;;;;;30.08;40.35;96608.13;5030231;28;102524;-67
2022/07/03 10:39:24;;;;;;;0.70;0.70;;;;;;;29.86;38.42;96605.44;5029392;28;103152;-64
2022/07/03 10:45:06;;;;;;;0.60;0.60;;;;;;;30.17;39.07;96602.38;5028292;28;105643;-64
2022/07/03 10:47:47;;;;;;;0.75;0.70;;;;;;;30.02;38.41;96601.38;5029142;28;103709;-64
2022/07/03 10:50:15;;;;;;;0.90;0.80;;;;;;;30.13;37.90;96607.06;5031747;28;102491;-64
2022/07/03 10:52:44;;;;;;;4.53;4.30;;;;;;;30.20;38.57;96598.91;5027622;28;106146;-64
2022/07/03 10:55:14;;;;;;;0.85;0.80;;;;;;;30.15;37.73;96605.53;5027963;28;101922;-64
2022/07/03 10:57:42;;;;;;;1.02;0.90;;;;;;;30.33;37.94;96595.59;5029835;27;102364;-64
2022/07/03 11:00:17;;;;;;;0.60;0.60;;;;;;;30.80;38.11;96592.28;5032159;28;102650;-64
2022/07/03 11:02:47;;;;;;;0.55;0.55;;;;;;;30.12;36.85;96599.97;5031472;28;101938;-64
2022/07/03 11:05:21;;;;;;;0.63;0.60;;;;;;;30.47;35.95;96600.47;5032945;28;102925;-64
2022/07/03 11:08:05;;;;;;;0.50;0.50;;;;;;;31.11;36.88;96591.84;5032697;27;102909;-64
2022/07/03 11:11:54;;;;;;;0.60;0.60;;;;;;;31.67;39.18;96582.19;5036065;27;101777;-64
2022/07/03 11:13:32;;;;;;;0.60;0.60;;;;;;;31.71;34.72;96580.22;5030655;28;104027;-64
2022/07/03 11:15:59;;;;;;;0.73;0.50;;;;;;;32.01;33.55;96574.56;5031544;28;101985;-64
2022/07/03 11:18:29;;;;;;;0.50;0.50;;;;;;;31.35;35.21;96566.56;5032760;28;101937;-64
2022/07/03 11:21:26;;;;;;;0.65;0.65;;;;;;;31.08;34.13;96567.84;5032016;28;102960;-64
2022/07/03 11:24:35;;;;;;;1.48;0.70;;;;;;;30.87;34.15;96568.44;5032730;28;101807;-64
2022/07/03 11:27:26;;;;;;;0.40;0.40;;;;;;;30.75;34.13;96568.69;5032647;28;104825;-64
2022/07/03 11:29:59;;;;;;;0.60;0.55;;;;;;;30.80;33.03;96576.59;5032205;27;102584;-64
2022/07/03 11:32:46;;;;;;;1.25;0.60;;;;;;;30.94;32.47;96554.00;5032910;28;101982;-64
2022/07/03 11:35:50;;;;;;;0.60;0.60;;;;;;;31.09;34.80;96553.75;5034021;28;105155;-64
2022/07/03 11:38:21;;;;;;;0.57;0.57;;;;;;;32.23;37.29;96554.25;5031026;28;101836;-64
2022/07/03 11:40:51;;;;;;;0.80;0.50;;;;;;;31.79;32.56;96554.41;5032826;27;102505;-64
2022/07/03 11:43:20;;;;;;;1.13;0.90;;;;;;;31.44;33.04;96550.56;5031453;28;102639;-64
2022/07/03 11:45:49;;;;;;;1.05;1.00;;;;;;;31.62;31.35;96541.28;5032398;28;101824;-64
2022/07/03 11:48:18;;;;;;;0.50;0.50;;;;;;;31.54;31.69;96547.09;5030843;28;106550;-64